Terminal Aerodrome Forecast
Issued by NWS Melbourne, FL

Home | Current Version | Previous Version | Text Only | Print | Product List | Glossary On
Versions: 1 2 3 4 5 6 7 8 9 10 11 12 13 14 15 16 17 18
000
FTUS42 KMLB 221733
TAFMLB
TAF
KMLB 221733Z 2218/2318 13012G18KT 5SM SHRA BKN025 OVC040
      TEMPO 2218/2220 1SM +SHRA BR OVC010
     FM222200 13012G18KT 5SM -RA BR OVC020
      TEMPO 2222/2302 3SM SHRA BKN015 OVC030
     FM230200 11012KT P6SM VCSH BKN015 OVC030
     FM230600 10012KT P6SM SCT020 OVC040=

USA.gov is the U.S. government's official web portal to all federal, state and local government web resources and services.